createdAt,value
2022-07-29T00:00:09.237Z,100023.45
2022-07-29T00:01:18.986Z,100021.81
2022-07-29T00:02:20.024Z,100028.33
2022-07-29T00:03:22.900Z,100031.05
2022-07-29T00:04:25.924Z,100025.84
2022-07-29T00:05:28.723Z,100029.61
2022-07-29T00:06:31.861Z,100036.95
2022-07-29T00:07:34.602Z,100034.23
2022-07-29T00:08:37.424Z,100033.64
2022-07-29T00:09:44.910Z,100032.27
2022-07-29T00:10:45.213Z,100027.09
2022-07-29T00:11:48.181Z,100027.34
2022-07-29T00:12:51.109Z,100024.05
2022-07-29T00:13:54.863Z,100024.30
2022-07-29T00:14:57.697Z,100019.38
2022-07-29T00:16:04.435Z,100018.01
2022-07-29T00:17:05.088Z,100027.20
2022-07-29T00:18:07.914Z,100031.58
2022-07-29T00:19:10.631Z,100026.70
2022-07-29T00:20:14.427Z,100024.30
2022-07-29T00:21:18.233Z,100023.30
2022-07-29T00:22:21.018Z,100020.91
2022-07-29T00:23:24.123Z,100024.52
2022-07-29T00:24:27.018Z,100024.35
2022-07-29T00:25:29.612Z,100018.97
2022-07-29T00:26:34.347Z,100019.86
2022-07-29T00:27:36.916Z,100022.11
2022-07-29T00:28:39.501Z,100024.06
2022-07-29T00:29:42.079Z,100019.52
2022-07-29T00:30:45.248Z,100019.01
2022-07-29T00:31:47.944Z,100016.03
2022-07-29T00:32:50.755Z,100013.32
2022-07-29T00:33:53.492Z,100019.01
2022-07-29T00:34:56.270Z,100013.83
2022-07-29T00:35:58.928Z,100021.42
2022-07-29T00:37:01.705Z,100025.20
2022-07-29T00:38:04.384Z,100024.91
2022-07-29T00:39:06.980Z,100023.51
2022-07-29T00:40:11.247Z,100026.73
2022-07-29T00:41:13.925Z,100028.89
2022-07-29T00:42:16.906Z,100023.13
2022-07-29T00:43:19.604Z,100019.05
2022-07-29T00:44:22.385Z,100023.08
2022-07-29T00:45:25.070Z,100028.20
2022-07-29T00:46:28.030Z,100024.35
2022-07-29T00:47:30.862Z,100020.49
2022-07-29T00:48:33.435Z,100018.84
2022-07-29T00:49:36.273Z,100022.91
2022-07-29T00:50:39.174Z,100022.28
2022-07-29T00:51:41.875Z,100020.91
2022-07-29T00:52:44.450Z,100019.77
2022-07-29T00:53:47.245Z,100020.27
2022-07-29T00:54:49.835Z,100019.13
2022-07-29T00:55:54.227Z,100010.69
2022-07-29T00:57:00.247Z,100017.42
2022-07-29T00:58:03.030Z,100017.36
2022-07-29T00:59:05.732Z,100017.87
2022-07-29T01:00:11.770Z,100015.66
2022-07-29T01:01:14.568Z,100016.97
2022-07-29T01:02:17.485Z,100012.60
2022-07-29T01:03:20.423Z,100012.05
2022-07-29T01:04:23.012Z,100017.97
2022-07-29T01:05:50.088Z,100017.41
2022-07-29T01:06:31.718Z,100022.23
2022-07-29T01:08:55.811Z,100007.68
2022-07-29T01:09:58.757Z,100018.66
2022-07-29T01:11:01.636Z,100019.72
2022-07-29T01:12:05.172Z,100018.31
2022-07-29T01:13:08.427Z,100011.52
2022-07-29T01:14:11.488Z,100015.54
2022-07-29T01:15:14.163Z,100014.73
2022-07-29T01:16:24.261Z,100018.50
2022-07-29T01:17:54.649Z,100012.52
2022-07-29T01:19:03.339Z,100013.83
2022-07-29T01:20:15.632Z,100011.36
2022-07-29T01:21:31.210Z,100010.77
2022-07-29T01:22:37.888Z,100009.15
2022-07-29T01:23:50.364Z,100012.11
2022-07-29T01:25:02.280Z,100016.13
2022-07-29T01:27:35.776Z,100011.92
2022-07-29T01:28:42.117Z,100014.47
2022-07-29T01:31:07.778Z,100007.97
2022-07-29T01:32:22.600Z,100017.34
2022-07-29T01:33:19.083Z,100011.42
2022-07-29T01:34:23.872Z,100018.00
2022-07-29T01:35:29.123Z,100013.73
2022-07-29T01:37:59.448Z,100004.80
2022-07-29T01:39:08.910Z,100018.03
2022-07-29T01:40:16.020Z,100005.61
2022-07-29T01:41:18.967Z,100014.65
2022-07-29T01:42:28.517Z,100008.22
2022-07-29T01:43:51.992Z,100010.18
2022-07-29T01:44:57.917Z,100011.07
2022-07-29T01:46:03.186Z,100011.69
2022-07-29T01:47:15.445Z,100004.13
2022-07-29T01:49:48.297Z,100005.09
2022-07-29T01:50:54.436Z,100007.09
2022-07-29T01:51:59.816Z,100001.84
2022-07-29T01:53:07.000Z,100004.50
2022-07-29T01:54:21.509Z,100005.77
2022-07-29T01:55:27.473Z,100007.58
2022-07-29T01:56:30.503Z,100012.10
2022-07-29T01:57:33.098Z,100011.55
2022-07-29T01:58:35.866Z,100010.39
2022-07-29T01:59:38.443Z,100013.05
2022-07-29T02:00:41.346Z,100021.12
2022-07-29T02:01:46.182Z,100023.48
2022-07-29T02:02:48.994Z,100018.00
2022-07-29T02:03:51.732Z,100013.33
2022-07-29T02:04:54.461Z,100013.83
2022-07-29T02:07:11.398Z,100007.09
2022-07-29T02:08:14.069Z,100018.02
2022-07-29T02:09:16.666Z,100013.66
2022-07-29T02:10:25.783Z,100021.30
2022-07-29T02:11:26.557Z,100018.09
2022-07-29T02:12:29.234Z,100018.44
2022-07-29T02:13:31.810Z,100024.98
2022-07-29T02:14:41.082Z,100024.23
2022-07-29T02:15:43.862Z,100019.97
2022-07-29T02:16:47.667Z,100026.85
2022-07-29T02:17:53.991Z,100022.83
2022-07-29T02:18:56.633Z,100023.70
2022-07-29T02:20:00.990Z,100024.86
2022-07-29T02:21:04.122Z,100026.81
2022-07-29T02:22:07.315Z,100027.71
2022-07-29T02:23:10.831Z,100021.23
2022-07-29T02:24:14.193Z,100025.64
2022-07-29T02:25:17.202Z,100022.68
2022-07-29T02:26:21.302Z,100032.78
2022-07-29T02:27:24.085Z,100022.48
2022-07-29T02:28:28.805Z,100029.05
2022-07-29T02:29:31.514Z,100024.19
2022-07-29T02:30:37.032Z,100025.62
2022-07-29T02:31:39.685Z,100025.92
2022-07-29T02:32:42.463Z,100022.95
2022-07-29T02:33:45.464Z,100026.81
2022-07-29T02:34:48.149Z,100031.48
2022-07-29T02:35:50.733Z,100026.61
2022-07-29T02:36:53.713Z,100028.52
2022-07-29T02:37:56.279Z,100034.20
2022-07-29T02:38:58.961Z,100031.17
2022-07-29T02:40:01.656Z,100032.49
2022-07-29T02:41:15.987Z,100033.25
2022-07-29T02:42:18.692Z,100034.82
2022-07-29T02:43:21.688Z,100028.22
2022-07-29T02:44:24.999Z,100027.09
2022-07-29T02:45:27.734Z,100023.49
2022-07-29T02:46:35.118Z,100031.58
2022-07-29T02:47:43.331Z,100023.34
2022-07-29T02:48:52.263Z,100030.84
2022-07-29T02:50:10.637Z,100033.48
2022-07-29T02:51:43.484Z,100035.30
2022-07-29T02:52:34.274Z,100028.75
2022-07-29T02:53:36.989Z,100030.87
2022-07-29T02:54:48.616Z,100029.00
2022-07-29T02:55:59.341Z,100030.63
2022-07-29T02:57:04.643Z,100031.78
2022-07-29T02:58:22.440Z,100032.68
2022-07-29T02:59:26.679Z,100027.31
2022-07-29T03:00:32.486Z,100033.95
2022-07-29T03:01:35.245Z,100034.84
2022-07-29T03:02:40.895Z,100033.03
2022-07-29T03:04:56.096Z,100025.67
2022-07-29T03:06:01.563Z,100034.82
2022-07-29T03:07:04.247Z,100038.94
2022-07-29T03:09:18.332Z,100032.92
2022-07-29T03:10:23.639Z,100035.84
2022-07-29T03:11:46.130Z,100035.08
2022-07-29T03:12:30.984Z,100033.48
2022-07-29T03:13:33.819Z,100034.11
2022-07-29T03:14:36.409Z,100036.36
2022-07-29T03:15:39.128Z,100028.84
2022-07-29T03:16:42.444Z,100031.13
2022-07-29T03:17:45.178Z,100034.69
2022-07-29T03:18:47.880Z,100032.56
2022-07-29T03:19:50.607Z,100029.84
2022-07-29T03:20:53.563Z,100033.63
2022-07-29T03:21:57.549Z,100037.91
2022-07-29T03:23:00.604Z,100034.35
2022-07-29T03:24:09.765Z,100034.86
2022-07-29T03:25:09.936Z,100030.75
2022-07-29T03:26:13.152Z,100042.12
2022-07-29T03:27:15.831Z,100041.80
2022-07-29T03:28:18.629Z,100045.86
2022-07-29T03:29:22.014Z,100040.09
2022-07-29T03:30:26.834Z,100038.48
2022-07-29T03:31:30.285Z,100038.48
2022-07-29T03:32:33.819Z,100038.22
2022-07-29T03:33:36.495Z,100041.50
2022-07-29T03:34:39.207Z,100035.81
2022-07-29T03:35:42.069Z,100037.20
2022-07-29T03:36:44.833Z,100032.08
2022-07-29T03:37:47.453Z,100028.03
2022-07-29T03:38:50.619Z,100030.50
2022-07-29T03:39:54.543Z,100032.70
2022-07-29T03:40:59.042Z,100034.35
2022-07-29T03:42:01.739Z,100028.66
2022-07-29T03:44:25.045Z,100022.80
2022-07-29T03:45:27.738Z,100034.95
2022-07-29T03:46:31.767Z,100030.66
2022-07-29T03:47:49.805Z,100036.38
2022-07-29T03:48:42.476Z,100036.45
2022-07-29T03:49:45.373Z,100036.48
2022-07-29T03:50:48.631Z,100034.06
2022-07-29T03:51:51.490Z,100040.08
2022-07-29T03:52:54.200Z,100041.47
2022-07-29T03:53:57.275Z,100041.50
2022-07-29T03:55:00.160Z,100038.02
2022-07-29T03:56:03.522Z,100042.41
2022-07-29T03:57:06.219Z,100046.03
2022-07-29T03:58:10.615Z,100035.19
2022-07-29T03:59:14.123Z,100043.38
2022-07-29T04:00:17.357Z,100038.00
2022-07-29T04:01:20.466Z,100045.62
2022-07-29T04:02:27.324Z,100039.41
2022-07-29T04:03:27.851Z,100043.25
2022-07-29T04:04:35.411Z,100039.75
2022-07-29T04:05:38.258Z,100037.05
2022-07-29T04:06:42.170Z,100031.64
2022-07-29T04:07:45.682Z,100039.01
2022-07-29T04:08:48.371Z,100033.36
2022-07-29T04:09:50.932Z,100036.94
2022-07-29T04:10:53.944Z,100035.88
2022-07-29T04:12:01.491Z,100024.20
2022-07-29T04:13:01.132Z,100033.19
2022-07-29T04:14:04.165Z,100037.58
2022-07-29T04:15:07.695Z,100034.89
2022-07-29T04:16:10.944Z,100033.05
2022-07-29T04:17:13.689Z,100023.25
2022-07-29T04:18:16.382Z,100028.73
2022-07-29T04:19:19.069Z,100019.77
2022-07-29T04:20:21.875Z,100026.87
2022-07-29T04:21:24.747Z,100036.69
2022-07-29T04:22:28.046Z,100033.16
2022-07-29T04:23:30.839Z,100031.55
2022-07-29T04:24:33.526Z,100031.28
2022-07-29T04:25:40.424Z,100034.27
2022-07-29T04:26:46.223Z,100029.67
2022-07-29T04:27:48.811Z,100032.66
2022-07-29T04:28:51.482Z,100038.68
2022-07-29T04:29:56.924Z,100032.69
2022-07-29T04:30:59.029Z,100034.60
2022-07-29T04:32:01.655Z,100037.08
2022-07-29T04:33:05.655Z,100036.27
2022-07-29T04:34:08.472Z,100043.89
2022-07-29T04:35:11.162Z,100043.89
2022-07-29T04:36:28.746Z,100037.66
2022-07-29T04:37:19.762Z,100032.47
2022-07-29T04:38:23.059Z,100039.83
2022-07-29T04:39:25.653Z,100039.85
2022-07-29T04:40:32.270Z,100039.84
2022-07-29T04:41:35.162Z,100037.13
2022-07-29T04:42:46.294Z,100042.57
2022-07-29T04:43:43.470Z,100049.12
2022-07-29T04:44:46.187Z,100045.57
2022-07-29T04:45:50.724Z,100036.29
2022-07-29T04:48:05.911Z,100034.34
2022-07-29T04:49:08.679Z,100028.62
2022-07-29T04:50:12.131Z,100039.80
2022-07-29T04:51:16.320Z,100029.97
2022-07-29T04:52:19.054Z,100040.06
2022-07-29T04:53:21.815Z,100027.23
2022-07-29T04:54:24.778Z,100032.12
2022-07-29T04:55:28.548Z,100031.02
2022-07-29T04:56:31.533Z,100026.38
2022-07-29T04:57:34.134Z,100036.77
2022-07-29T04:58:36.820Z,100031.59
2022-07-29T04:59:39.502Z,100029.10
2022-07-29T05:00:42.289Z,100027.73
2022-07-29T05:01:45.016Z,100023.89
2022-07-29T05:02:47.827Z,100022.77
2022-07-29T05:03:50.547Z,100026.06
2022-07-29T05:04:53.228Z,100031.49
2022-07-29T05:05:55.808Z,100021.38
2022-07-29T05:06:58.581Z,100022.74
2022-07-29T05:08:01.250Z,100027.36
2022-07-29T05:09:03.906Z,100029.53
2022-07-29T05:10:07.942Z,100022.98
2022-07-29T05:11:12.033Z,100024.31
2022-07-29T05:12:15.138Z,100034.98
2022-07-29T05:13:17.803Z,100029.25
2022-07-29T05:14:20.749Z,100029.77
2022-07-29T05:15:24.087Z,100031.42
2022-07-29T05:16:28.812Z,100035.48
2022-07-29T05:17:31.482Z,100030.57
2022-07-29T05:18:34.060Z,100036.28
2022-07-29T05:19:39.655Z,100030.53
2022-07-29T05:20:41.336Z,100034.34
2022-07-29T05:21:44.974Z,100032.66
2022-07-29T05:22:47.669Z,100032.94
2022-07-29T05:23:50.371Z,100031.25
2022-07-29T05:24:53.064Z,100033.97
2022-07-29T05:25:55.739Z,100028.73
2022-07-29T05:26:58.628Z,100034.75
2022-07-29T05:28:01.300Z,100034.98
2022-07-29T05:29:03.932Z,100035.25
2022-07-29T05:30:08.105Z,100033.33
2022-07-29T05:31:10.794Z,100028.66
2022-07-29T05:32:13.764Z,100036.06
2022-07-29T05:33:35.296Z,100035.54
2022-07-29T05:34:20.862Z,100035.54
2022-07-29T05:35:23.564Z,100037.98
2022-07-29T05:36:26.755Z,100037.42
2022-07-29T05:37:29.437Z,100032.99
2022-07-29T05:38:32.111Z,100033.26
2022-07-29T05:39:46.594Z,100030.47
2022-07-29T05:41:52.085Z,100033.63
2022-07-29T05:42:55.416Z,100033.42
2022-07-29T05:43:58.409Z,100025.45
2022-07-29T05:45:01.597Z,100031.98
2022-07-29T05:46:04.590Z,100027.30
2022-07-29T05:47:07.352Z,100036.55
2022-07-29T05:48:10.424Z,100037.33
2022-07-29T05:49:13.171Z,100036.46
2022-07-29T05:50:19.508Z,100034.80
2022-07-29T05:51:22.222Z,100027.09
2022-07-29T05:52:24.879Z,100035.86
2022-07-29T05:53:27.678Z,100036.09
2022-07-29T05:55:41.044Z,100029.39
2022-07-29T05:56:43.861Z,100031.13
2022-07-29T05:57:46.567Z,100039.86
2022-07-29T05:58:49.255Z,100038.98
2022-07-29T05:59:51.968Z,100034.58
2022-07-29T06:00:54.987Z,100034.51
2022-07-29T06:01:58.389Z,100031.19
2022-07-29T06:03:01.515Z,100038.24
2022-07-29T06:04:04.431Z,100035.17
2022-07-29T06:05:07.438Z,100034.30
2022-07-29T06:06:13.244Z,100030.98
2022-07-29T06:07:16.060Z,100027.11
2022-07-29T06:08:18.741Z,100030.09
2022-07-29T06:09:21.614Z,100030.32
2022-07-29T06:10:26.170Z,100037.66
2022-07-29T06:11:29.724Z,100032.98
2022-07-29T06:12:32.517Z,100034.92
2022-07-29T06:13:35.214Z,100032.98
2022-07-29T06:14:37.789Z,100042.55
2022-07-29T06:15:40.508Z,100035.39
2022-07-29T06:16:43.625Z,100044.66
2022-07-29T06:18:00.720Z,100040.80
2022-07-29T06:18:50.961Z,100041.55
2022-07-29T06:19:53.621Z,100043.70
2022-07-29T06:20:57.483Z,100034.92
2022-07-29T06:22:00.707Z,100040.63
2022-07-29T06:23:03.708Z,100040.33
2022-07-29T06:24:07.100Z,100046.35
2022-07-29T06:25:10.138Z,100042.73
2022-07-29T06:26:14.450Z,100041.89
2022-07-29T06:27:17.180Z,100045.98
2022-07-29T06:28:19.885Z,100047.32
2022-07-29T06:29:22.550Z,100047.53
2022-07-29T06:30:27.254Z,100049.09
2022-07-29T06:31:30.033Z,100039.17
2022-07-29T06:32:33.414Z,100042.72
2022-07-29T06:33:36.102Z,100044.06
2022-07-29T06:34:38.780Z,100045.41
2022-07-29T06:35:44.739Z,100048.66
2022-07-29T06:36:48.233Z,100043.38
2022-07-29T06:37:51.846Z,100039.54
2022-07-29T06:38:56.431Z,100049.41
2022-07-29T06:39:59.690Z,100044.43
2022-07-29T06:41:02.640Z,100041.18
2022-07-29T06:42:06.149Z,100045.77
2022-07-29T06:43:08.826Z,100042.94
2022-07-29T06:44:11.530Z,100043.45
2022-07-29T06:45:14.246Z,100038.80
2022-07-29T06:46:18.016Z,100041.54
2022-07-29T06:47:20.848Z,100033.82
2022-07-29T06:48:23.454Z,100041.15
2022-07-29T06:49:26.515Z,100041.89
2022-07-29T06:50:30.005Z,100036.61
2022-07-29T06:51:33.404Z,100041.80
2022-07-29T06:52:36.097Z,100038.19
2022-07-29T06:53:39.167Z,100036.28
2022-07-29T06:54:43.816Z,100034.34
2022-07-29T06:55:46.509Z,100043.38
2022-07-29T06:56:49.431Z,100032.64
2022-07-29T06:57:52.108Z,100034.48
2022-07-29T06:58:54.799Z,100030.60
2022-07-29T06:59:57.490Z,100031.64
2022-07-29T07:01:03.815Z,100037.86
2022-07-29T07:02:06.742Z,100032.07
2022-07-29T07:03:09.610Z,100026.35
2022-07-29T07:04:12.483Z,100026.66
2022-07-29T07:05:15.287Z,100032.67
2022-07-29T07:06:19.083Z,100037.56
2022-07-29T07:07:21.651Z,100031.27
2022-07-29T07:08:24.351Z,100036.45
2022-07-29T07:09:31.107Z,100040.80
2022-07-29T07:10:33.224Z,100039.20
2022-07-29T07:11:36.038Z,100040.80
2022-07-29T07:12:38.659Z,100041.34
2022-07-29T07:13:41.332Z,100037.99
2022-07-29T07:14:44.024Z,100039.60
2022-07-29T07:15:46.892Z,100041.55
2022-07-29T07:16:50.791Z,100040.94
2022-07-29T07:17:55.324Z,100042.58
2022-07-29T07:18:58.101Z,100043.08
2022-07-29T07:20:00.764Z,100041.14
2022-07-29T07:21:03.585Z,100045.02
2022-07-29T07:22:06.243Z,100045.52
2022-07-29T07:23:08.931Z,100050.11
2022-07-29T07:24:11.611Z,100048.09
2022-07-29T07:25:14.164Z,100051.53
2022-07-29T07:26:17.772Z,100050.13
2022-07-29T07:27:20.891Z,100051.96
2022-07-29T07:28:24.957Z,100048.00
2022-07-29T07:29:28.070Z,100048.26
2022-07-29T07:30:31.167Z,100052.84
2022-07-29T07:31:33.887Z,100047.04
2022-07-29T07:32:36.917Z,100040.94
2022-07-29T07:33:39.618Z,100037.58
2022-07-29T07:34:43.276Z,100044.06
2022-07-29T07:35:46.271Z,100035.22
2022-07-29T07:36:49.408Z,100036.36
2022-07-29T07:37:52.215Z,100039.59
2022-07-29T07:38:54.995Z,100038.19
2022-07-29T07:39:57.786Z,100042.53
2022-07-29T07:41:01.264Z,100040.09
2022-07-29T07:42:04.199Z,100042.53
2022-07-29T07:43:06.981Z,100050.08
2022-07-29T07:44:14.205Z,100044.47
2022-07-29T07:45:16.285Z,100052.94
2022-07-29T07:46:21.057Z,100044.69
2022-07-29T07:47:23.961Z,100054.97
2022-07-29T07:48:26.848Z,100052.33
2022-07-29T07:49:29.561Z,100045.81
2022-07-29T07:50:32.809Z,100049.98
2022-07-29T07:51:35.728Z,100047.53
2022-07-29T07:52:52.298Z,100047.03
2022-07-29T07:53:54.996Z,100049.48
2022-07-29T07:54:57.678Z,100046.12
2022-07-29T07:56:10.553Z,100052.64
2022-07-29T07:57:05.083Z,100058.02
2022-07-29T07:58:08.262Z,100050.50
2022-07-29T07:59:10.957Z,100050.98
2022-07-29T08:00:15.755Z,100055.07
2022-07-29T08:01:18.690Z,100056.59
2022-07-29T08:02:21.698Z,100059.83
2022-07-29T08:03:24.787Z,100052.61
2022-07-29T08:04:29.091Z,100055.23
2022-07-29T08:05:32.316Z,100056.75
2022-07-29T08:06:37.049Z,100062.19
2022-07-29T08:07:39.855Z,100060.42
2022-07-29T08:08:43.087Z,100055.76
2022-07-29T08:09:46.146Z,100051.06
2022-07-29T08:10:49.166Z,100056.56
2022-07-29T08:11:52.114Z,100052.08
2022-07-29T08:12:55.185Z,100051.46
2022-07-29T08:13:57.964Z,100053.59
2022-07-29T08:15:00.755Z,100043.08
2022-07-29T08:16:03.860Z,100051.33
2022-07-29T08:17:06.693Z,100044.19
2022-07-29T08:18:09.440Z,100045.03
2022-07-29T08:19:12.211Z,100055.41
2022-07-29T08:20:17.222Z,100042.95
2022-07-29T08:21:20.379Z,100042.64
2022-07-29T08:22:23.048Z,100048.36
2022-07-29T08:23:26.330Z,100046.92
2022-07-29T08:24:29.223Z,100044.98
2022-07-29T08:26:43.599Z,100041.23
2022-07-29T08:28:59.143Z,100040.67
2022-07-29T08:30:01.868Z,100039.80
2022-07-29T08:31:04.658Z,100046.28
2022-07-29T08:32:07.512Z,100036.91
2022-07-29T08:33:10.350Z,100043.11
2022-07-29T08:34:13.118Z,100045.76
2022-07-29T08:35:15.834Z,100040.95
2022-07-29T08:36:19.667Z,100036.13
2022-07-29T08:37:22.334Z,100046.37
2022-07-29T08:38:25.015Z,100033.61
2022-07-29T08:39:27.726Z,100032.66
2022-07-29T08:40:32.488Z,100036.89
2022-07-29T08:41:36.948Z,100037.58
2022-07-29T08:42:39.955Z,100040.36
2022-07-29T08:43:42.643Z,100042.47
2022-07-29T08:44:45.435Z,100035.36
2022-07-29T08:45:49.727Z,100040.19
2022-07-29T08:46:52.868Z,100040.50
2022-07-29T08:47:55.562Z,100043.09
2022-07-29T08:48:58.276Z,100042.77
2022-07-29T08:50:01.017Z,100037.27
2022-07-29T08:51:04.400Z,100045.02
2022-07-29T08:52:07.311Z,100045.48
2022-07-29T08:53:15.551Z,100041.23
2022-07-29T08:54:18.438Z,100041.55
2022-07-29T08:55:21.554Z,100049.66
2022-07-29T08:56:25.235Z,100046.59
2022-07-29T08:57:27.926Z,100034.95
2022-07-29T08:58:32.303Z,100044.53
2022-07-29T09:03:26.323Z,100046.18
2022-07-29T09:04:30.972Z,100043.79
2022-07-29T09:05:38.084Z,100049.66
2022-07-29T09:07:53.097Z,100038.27
2022-07-29T09:08:57.606Z,100040.03
2022-07-29T09:10:00.621Z,100036.48
2022-07-29T09:11:03.947Z,100034.69
2022-07-29T09:12:08.101Z,100034.36
2022-07-29T09:13:10.784Z,100042.63
2022-07-29T09:14:13.555Z,100035.33
2022-07-29T09:15:16.254Z,100035.64
2022-07-29T09:16:43.771Z,100037.12
2022-07-29T09:17:47.012Z,100041.63
2022-07-29T09:18:49.895Z,100038.36
2022-07-29T09:19:52.594Z,100035.61
2022-07-29T09:20:55.676Z,100040.64
2022-07-29T09:21:59.840Z,100041.44
2022-07-29T09:24:16.968Z,100041.34
2022-07-29T09:26:46.114Z,100035.03
2022-07-29T09:29:16.313Z,100035.20
2022-07-29T09:31:36.207Z,100033.27
2022-07-29T09:32:58.793Z,100031.28
2022-07-29T09:34:01.502Z,100037.63
2022-07-29T09:35:18.271Z,100041.83
2022-07-29T09:36:22.823Z,100038.72
2022-07-29T09:37:28.945Z,100042.27
2022-07-29T09:38:32.154Z,100038.64
2022-07-29T09:40:56.504Z,100036.01
2022-07-29T09:42:05.513Z,100039.82
2022-07-29T09:43:12.218Z,100044.33
2022-07-29T09:44:15.085Z,100042.20
2022-07-29T09:45:31.536Z,100038.65
2022-07-29T09:46:36.108Z,100038.97
2022-07-29T09:47:44.118Z,100037.33
2022-07-29T09:50:01.739Z,100037.27
2022-07-29T09:51:04.441Z,100034.77
2022-07-29T09:52:08.525Z,100037.70
2022-07-29T09:53:11.421Z,100035.78
2022-07-29T09:54:25.469Z,100036.75
2022-07-29T09:55:28.311Z,100034.31
2022-07-29T09:56:40.465Z,100029.64
2022-07-29T09:57:43.229Z,100033.19
2022-07-29T09:58:45.936Z,100038.70
2022-07-29T10:00:00.559Z,100037.06
2022-07-29T10:01:03.330Z,100027.80
2022-07-29T10:02:12.900Z,100026.00
2022-07-29T10:03:15.975Z,100032.34
2022-07-29T10:04:19.287Z,100026.00
2022-07-29T10:05:23.612Z,100029.59
2022-07-29T10:06:28.112Z,100023.93
2022-07-29T10:07:53.642Z,100027.20
2022-07-29T10:08:54.617Z,100022.98
2022-07-29T10:09:57.624Z,100027.41
2022-07-29T10:11:16.926Z,100024.51
2022-07-29T10:12:19.646Z,100017.55
2022-07-29T10:13:22.359Z,100023.72
2022-07-29T10:14:25.158Z,100018.59
2022-07-29T10:15:29.430Z,100022.02
2022-07-29T10:16:32.378Z,100019.27
2022-07-29T10:17:35.112Z,100018.95
2022-07-29T10:18:39.916Z,100021.70
2022-07-29T10:19:42.602Z,100020.06
2022-07-29T10:20:45.379Z,100014.08
2022-07-29T10:21:49.066Z,100011.00
2022-07-29T10:22:53.707Z,100011.99
2022-07-29T10:24:01.086Z,100011.16
2022-07-29T10:26:12.890Z,100014.61
2022-07-29T10:27:15.640Z,100015.25
2022-07-29T10:28:18.194Z,100009.61
2022-07-29T10:29:21.480Z,100011.40
2022-07-29T10:30:26.591Z,100018.38
2022-07-29T10:31:32.094Z,100018.40
2022-07-29T10:33:12.420Z,100012.87
2022-07-29T10:34:24.982Z,100009.67
2022-07-29T10:35:48.302Z,100009.02
2022-07-29T10:38:24.771Z,100003.66
2022-07-29T10:39:44.352Z,100003.81
2022-07-29T10:41:06.778Z,100006.24
2022-07-29T10:42:20.306Z,100004.47
2022-07-29T10:43:27.788Z,100007.55
2022-07-29T10:44:32.395Z,100007.70
2022-07-29T10:45:35.072Z,100001.70
2022-07-29T10:46:41.291Z,100003.63
2022-07-29T10:49:08.419Z,100000.72
2022-07-29T10:50:17.231Z,99998.63
2022-07-29T10:51:17.848Z,99997.16
2022-07-29T10:52:20.893Z,99995.86
2022-07-29T10:53:25.822Z,99994.55
2022-07-29T10:54:45.416Z,99999.41
2022-07-29T10:55:48.621Z,99995.20
2022-07-29T10:56:51.550Z,99991.78
2022-07-29T10:58:18.073Z,99999.88
2022-07-29T10:59:23.519Z,99998.27
2022-07-29T11:00:29.163Z,99999.84
2022-07-29T11:01:37.083Z,99992.20
2022-07-29T11:02:41.955Z,99995.27
2022-07-29T11:05:00.648Z,99991.59
2022-07-29T11:06:08.801Z,99993.14
2022-07-29T11:07:08.338Z,99991.05
2022-07-29T11:08:19.684Z,99990.73
2022-07-29T11:09:20.311Z,99997.59
2022-07-29T11:10:27.038Z,99990.43
2022-07-29T11:11:31.419Z,99987.48
2022-07-29T11:12:39.501Z,99989.77
2022-07-29T11:13:46.581Z,99990.55
2022-07-29T11:14:56.613Z,99995.08
2022-07-29T11:15:59.407Z,99991.98
2022-07-29T11:18:17.428Z,99995.36
2022-07-29T11:19:26.276Z,99993.28
2022-07-29T11:20:41.671Z,99990.98
2022-07-29T11:21:54.008Z,99995.72
2022-07-29T11:22:49.901Z,99992.29
2022-07-29T11:23:52.702Z,99992.95
2022-07-29T11:25:17.582Z,99993.75
2022-07-29T11:27:30.620Z,99990.66
2022-07-29T11:28:35.020Z,99995.52
2022-07-29T11:31:03.427Z,99981.00
2022-07-29T11:33:54.830Z,99987.75
2022-07-29T11:34:36.281Z,99980.33
2022-07-29T11:35:39.958Z,99981.47
2022-07-29T11:37:07.473Z,99970.41
2022-07-29T11:38:27.947Z,99971.37
2022-07-29T11:39:36.347Z,99966.47
2022-07-29T11:40:35.262Z,99970.24
2022-07-29T11:49:39.189Z,99967.65
2022-07-29T11:50:44.313Z,99964.22
2022-07-29T11:51:52.182Z,99966.47
2022-07-29T11:52:55.016Z,99959.60
2022-07-29T11:54:04.113Z,99965.05
2022-07-29T11:56:26.382Z,99957.11
2022-07-29T11:57:36.021Z,99958.86
2022-07-29T11:58:33.656Z,99957.11
2022-07-29T11:59:40.307Z,99955.57
2022-07-29T12:00:46.528Z,99958.39
2022-07-29T12:02:12.059Z,99959.94
2022-07-29T12:03:02.818Z,99958.22
2022-07-29T12:05:22.282Z,99953.50
2022-07-29T12:06:21.838Z,99947.64
2022-07-29T12:07:01.385Z,99996.05
2022-07-29T12:07:32.707Z,99949.27
2022-07-29T12:08:41.080Z,99948.81
2022-07-29T12:09:51.164Z,99941.19
2022-07-29T12:10:56.204Z,99945.88
2022-07-29T12:12:04.943Z,99957.01
2022-07-29T12:13:04.276Z,99957.70
2022-07-29T12:14:07.044Z,99953.84
2022-07-29T12:15:16.731Z,99954.00
2022-07-29T12:16:25.819Z,99955.66
2022-07-29T12:18:42.558Z,99950.47
2022-07-29T12:19:45.155Z,99950.65
2022-07-29T12:20:48.125Z,99957.34
2022-07-29T12:21:56.349Z,99955.91
2022-07-29T12:22:57.232Z,99953.30
2022-07-29T12:24:08.825Z,99954.45
2022-07-29T12:25:32.214Z,99951.70
2022-07-29T12:26:21.881Z,99953.30
2022-07-29T12:27:28.588Z,99955.59
2022-07-29T12:28:27.496Z,99952.83
2022-07-29T12:29:33.678Z,99952.03
2022-07-29T12:30:40.484Z,99951.70
2022-07-29T12:31:45.348Z,99950.21
2022-07-29T12:32:48.615Z,99951.52
2022-07-29T12:33:54.604Z,99949.55
2022-07-29T12:34:57.398Z,99949.55
2022-07-29T12:36:12.859Z,99952.50
2022-07-29T12:37:05.897Z,99948.95
2022-07-29T12:38:11.018Z,99948.63
2022-07-29T12:39:13.716Z,99948.30
2022-07-29T12:40:17.548Z,99943.61
2022-07-29T12:41:20.638Z,99948.15
2022-07-29T12:42:23.477Z,99944.88
2022-07-29T12:43:26.186Z,99950.38
2022-07-29T12:45:57.157Z,99939.15
2022-07-29T12:48:36.144Z,99933.56
2022-07-29T12:49:38.898Z,99935.72
2022-07-29T12:50:59.955Z,99939.09
2022-07-29T12:52:24.098Z,99935.53
2022-07-29T12:53:26.968Z,99937.30
2022-07-29T12:54:29.647Z,99936.64
2022-07-29T12:56:59.146Z,99934.80
2022-07-29T12:58:01.871Z,99936.77
2022-07-29T12:59:18.454Z,99927.85
2022-07-29T13:00:23.556Z,99936.14
2022-07-29T13:01:26.550Z,99936.60
2022-07-29T13:02:29.383Z,99931.87
2022-07-29T13:05:10.748Z,99916.06
2022-07-29T13:06:45.890Z,99926.02
2022-07-29T13:08:29.690Z,99923.13
2022-07-29T13:10:24.117Z,99921.93
2022-07-29T13:11:50.330Z,99928.65
2022-07-29T13:13:07.921Z,99924.75
2022-07-29T13:14:12.030Z,99921.66
2022-07-29T13:15:15.264Z,99922.46
2022-07-29T13:16:20.890Z,99915.80
2022-07-29T13:17:23.839Z,99916.60
2022-07-29T13:18:34.194Z,99916.27
2022-07-29T13:19:44.864Z,99912.84
2022-07-29T13:20:48.208Z,99911.38